createdAt,value
2019-04-06T00:02:12.941Z,41.15
2019-04-06T00:04:50.453Z,32.73
2019-04-06T00:07:27.685Z,36.30
2019-04-06T00:10:05.083Z,32.60
2019-04-06T00:12:43.816Z,34.53
2019-04-06T00:15:21.312Z,34.63
2019-04-06T00:17:58.908Z,34.55
2019-04-06T00:20:37.035Z,36.45
2019-04-06T00:23:14.764Z,36.03
2019-04-06T00:25:54.123Z,34.53
2019-04-06T00:28:31.256Z,33.58
2019-04-06T00:31:26.194Z,32.93
2019-04-06T00:34:06.166Z,34.88
2019-04-06T00:36:46.247Z,34.88
2019-04-06T00:39:23.572Z,37.25
2019-04-06T00:42:00.963Z,28.42
2019-04-06T00:44:40.177Z,33.85
2019-04-06T00:47:17.489Z,29.30
2019-04-06T00:49:54.578Z,33.63
2019-04-06T00:52:37.444Z,30.60
2019-04-06T00:55:15.195Z,24.23
2019-04-06T00:57:53.087Z,25.95
2019-04-06T01:00:30.127Z,24.85
2019-04-06T01:03:08.111Z,26.30
2019-04-06T01:05:46.826Z,26.02
2019-04-06T01:08:24.867Z,35.08
2019-04-06T01:11:02.578Z,35.10
2019-04-06T01:13:40.589Z,28.77
2019-04-06T01:16:18.553Z,33.70
2019-04-06T01:18:56.590Z,24.12
2019-04-06T01:21:33.595Z,20.80
2019-04-06T01:24:11.823Z,23.75
2019-04-06T01:26:51.368Z,22.77
2019-04-06T01:29:28.901Z,26.93
2019-04-06T01:32:06.186Z,27.27
2019-04-06T01:34:44.481Z,26.15
2019-04-06T01:37:24.125Z,26.02
2019-04-06T01:40:01.013Z,38.28
2019-04-06T01:42:38.316Z,31.65
2019-04-06T01:45:15.897Z,31.42
2019-04-06T01:47:53.377Z,29.18
2019-04-06T01:50:31.215Z,24.77
2019-04-06T01:53:08.599Z,28.83
2019-04-06T01:55:46.091Z,26.97
2019-04-06T01:58:27.817Z,25.43
2019-04-06T02:01:33.034Z,22.98
2019-04-06T02:04:10.520Z,22.20
2019-04-06T02:06:50.056Z,25.55
2019-04-06T02:09:29.157Z,24.72
2019-04-06T02:12:06.698Z,24.07
2019-04-06T02:14:44.244Z,18.23
2019-04-06T02:17:22.138Z,27.32
2019-04-06T02:19:59.779Z,20.15
2019-04-06T02:22:36.872Z,18.50
2019-04-06T02:25:14.418Z,20.85
2019-04-06T02:27:51.894Z,25.72
2019-04-06T02:30:32.850Z,23.05
2019-04-06T02:33:41.149Z,18.80
2019-04-06T02:36:39.911Z,24.40
2019-04-06T02:39:36.328Z,21.10
2019-04-06T02:42:24.674Z,18.48
2019-04-06T02:45:03.067Z,22.25
2019-04-06T02:47:41.122Z,16.00
2019-04-06T02:50:19.013Z,25.80
2019-04-06T02:52:57.312Z,16.73
2019-04-06T02:55:35.135Z,20.45
2019-04-06T02:58:12.991Z,17.30
2019-04-06T03:00:52.276Z,18.23
2019-04-06T03:03:30.860Z,14.65
2019-04-06T03:06:08.490Z,15.93
2019-04-06T03:08:46.499Z,14.33
2019-04-06T03:11:24.257Z,14.25
2019-04-06T03:14:03.716Z,17.52
2019-04-06T03:16:41.847Z,17.92
2019-04-06T03:19:20.428Z,19.17
2019-04-06T03:21:58.299Z,14.20
2019-04-06T03:24:40.499Z,15.90
2019-04-06T03:29:58.142Z,11.73
2019-04-06T03:32:33.270Z,17.57
2019-04-06T03:35:12.566Z,20.15
2019-04-06T03:37:50.779Z,15.65
2019-04-06T03:40:29.424Z,13.95
2019-04-06T03:43:06.864Z,13.18
2019-04-06T03:45:47.333Z,17.92
2019-04-06T03:48:25.130Z,13.60
2019-04-06T03:51:03.242Z,18.10
2019-04-06T03:53:42.920Z,24.43
2019-04-06T03:56:21.665Z,12.95
2019-04-06T03:58:59.891Z,10.95
2019-04-06T04:01:38.119Z,16.12
2019-04-06T04:04:15.713Z,14.28
2019-04-06T04:06:53.807Z,15.98
2019-04-06T04:09:31.796Z,18.20
2019-04-06T04:12:10.192Z,22.05
2019-04-06T04:14:47.918Z,17.57
2019-04-06T04:17:27.608Z,25.17
2019-04-06T04:20:05.479Z,13.08
2019-04-06T04:22:43.319Z,12.58
2019-04-06T04:25:21.865Z,15.58
2019-04-06T04:28:03.508Z,12.25
2019-04-06T04:30:44.287Z,12.55
2019-04-06T04:33:22.017Z,13.62
2019-04-06T04:35:59.611Z,13.53
2019-04-06T04:38:41.345Z,14.40
2019-04-06T04:41:19.529Z,16.60
2019-04-06T04:43:59.734Z,9.90
2019-04-06T04:46:40.355Z,11.30
2019-04-06T04:49:20.461Z,12.68
2019-04-06T04:51:58.645Z,11.80
2019-04-06T04:54:36.911Z,12.95
2019-04-06T04:57:16.016Z,10.82
2019-04-06T04:59:55.087Z,16.77
2019-04-06T05:02:33.835Z,11.40
2019-04-06T05:05:11.557Z,13.68
2019-04-06T05:07:49.446Z,12.60
2019-04-06T05:10:28.253Z,12.70
2019-04-06T05:13:06.526Z,15.32
2019-04-06T05:16:15.277Z,13.98
2019-04-06T05:18:53.273Z,13.43
2019-04-06T05:21:33.046Z,16.60
2019-04-06T05:24:11.216Z,9.78
2019-04-06T05:26:48.808Z,13.55
2019-04-06T05:29:26.335Z,11.35
2019-04-06T05:32:04.502Z,14.95
2019-04-06T05:34:41.911Z,13.15
2019-04-06T05:37:18.868Z,13.75
2019-04-06T05:39:55.888Z,15.28
2019-04-06T05:42:33.429Z,13.45
2019-04-06T05:45:11.677Z,14.68
2019-04-06T05:47:49.273Z,13.15
2019-04-06T05:50:27.022Z,11.45
2019-04-06T05:53:05.710Z,16.20
2019-04-06T05:55:44.269Z,13.88
2019-04-06T05:58:21.761Z,10.93
2019-04-06T06:00:59.180Z,18.55
2019-04-06T06:03:41.089Z,16.37
2019-04-06T06:06:17.488Z,17.75
2019-04-06T06:08:54.759Z,13.70
2019-04-06T06:11:32.399Z,15.70
2019-04-06T06:14:10.779Z,14.38
2019-04-06T06:16:49.384Z,18.30
2019-04-06T06:19:27.090Z,18.25
2019-04-06T06:22:04.739Z,13.53
2019-04-06T06:24:44.150Z,16.07
2019-04-06T06:27:22.785Z,11.05
2019-04-06T06:30:00.703Z,17.12
2019-04-06T06:32:38.399Z,12.13
2019-04-06T06:35:16.563Z,18.75
2019-04-06T06:37:54.212Z,16.52
2019-04-06T06:40:31.971Z,15.18
2019-04-06T06:43:09.810Z,14.05
2019-04-06T06:45:47.480Z,21.82
2019-04-06T06:48:25.039Z,19.60
2019-04-06T06:51:02.831Z,14.07
2019-04-06T06:53:40.487Z,25.85
2019-04-06T06:56:19.238Z,15.08
2019-04-06T06:58:56.653Z,16.02
2019-04-06T07:01:34.215Z,19.77
2019-04-06T07:04:12.793Z,24.57
2019-04-06T07:06:50.747Z,19.77
2019-04-06T07:09:28.332Z,12.88
2019-04-06T07:12:05.823Z,17.42
2019-04-06T07:14:43.343Z,18.15
2019-04-06T07:17:20.805Z,16.77
2019-04-06T07:19:57.732Z,15.70
2019-04-06T07:22:35.142Z,15.43
2019-04-06T07:25:14.046Z,14.20
2019-04-06T07:27:52.812Z,19.60
2019-04-06T07:30:30.360Z,18.12
2019-04-06T07:33:07.714Z,19.90
2019-04-06T07:35:45.108Z,14.13
2019-04-06T07:38:24.192Z,15.20
2019-04-06T07:41:01.688Z,18.40
2019-04-06T07:43:39.106Z,20.02
2019-04-06T07:46:16.991Z,19.75
2019-04-06T07:48:54.635Z,15.45
2019-04-06T07:51:32.040Z,11.93
2019-04-06T07:54:09.541Z,19.10
2019-04-06T07:56:47.629Z,18.42
2019-04-06T07:59:26.379Z,15.20
2019-04-06T08:02:04.765Z,11.97
2019-04-06T08:04:42.370Z,12.60
2019-04-06T08:07:19.540Z,14.98
2019-04-06T08:09:57.059Z,14.60
2019-04-06T08:12:34.769Z,14.73
2019-04-06T08:15:13.337Z,14.95
2019-04-06T08:17:50.851Z,15.38
2019-04-06T08:20:28.861Z,17.70
2019-04-06T08:23:06.620Z,17.90
2019-04-06T08:25:44.079Z,20.17
2019-04-06T08:28:21.602Z,22.17
2019-04-06T08:30:59.624Z,23.32
2019-04-06T08:33:37.749Z,14.28
2019-04-06T08:36:14.827Z,16.02
2019-04-06T08:38:52.671Z,16.15
2019-04-06T08:41:30.748Z,17.70
2019-04-06T08:44:08.282Z,16.70
2019-04-06T08:46:45.990Z,17.73
2019-04-06T08:49:23.790Z,19.77
2019-04-06T08:52:01.749Z,15.70
2019-04-06T08:54:40.560Z,16.65
2019-04-06T08:57:17.901Z,14.70
2019-04-06T08:59:55.628Z,23.80
2019-04-06T09:02:35.073Z,18.27
2019-04-06T09:05:13.783Z,17.37
2019-04-06T09:07:51.294Z,13.62
2019-04-06T09:10:28.868Z,14.35
2019-04-06T09:13:06.552Z,14.53
2019-04-06T09:15:44.275Z,17.30
2019-04-06T09:18:21.768Z,14.28
2019-04-06T09:20:59.773Z,15.35
2019-04-06T09:23:37.921Z,16.60
2019-04-06T09:26:16.579Z,17.48
2019-04-06T09:28:54.045Z,17.82
2019-04-06T09:31:31.775Z,15.80
2019-04-06T09:34:10.570Z,14.95
2019-04-06T09:36:48.554Z,12.35
2019-04-06T09:39:26.150Z,15.43
2019-04-06T09:42:04.173Z,20.02
2019-04-06T09:45:11.975Z,16.82
2019-04-06T09:48:05.599Z,20.70
2019-04-06T09:51:00.424Z,14.13
2019-04-06T09:54:07.634Z,16.82
2019-04-06T09:57:03.168Z,15.75
2019-04-06T09:59:58.881Z,14.25
2019-04-06T10:02:55.911Z,14.23
2019-04-06T10:05:57.154Z,12.30
2019-04-06T10:08:58.980Z,13.13
2019-04-06T10:11:58.183Z,15.45
2019-04-06T10:14:59.821Z,15.75
2019-04-06T10:17:52.169Z,15.53
2019-04-06T10:20:46.869Z,14.98
2019-04-06T10:23:42.820Z,16.87
2019-04-06T10:26:50.437Z,18.48
2019-04-06T10:29:49.695Z,15.85
2019-04-06T10:32:39.582Z,19.57
2019-04-06T10:35:48.721Z,14.63
2019-04-06T10:38:52.078Z,17.40
2019-04-06T10:41:55.201Z,21.73
2019-04-06T10:44:45.662Z,16.15
2019-04-06T10:47:35.855Z,19.37
2019-04-06T10:50:34.520Z,16.10
2019-04-06T10:53:28.780Z,19.92
2019-04-06T10:56:14.271Z,30.37
2019-04-06T10:59:03.364Z,24.27
2019-04-06T11:02:09.442Z,29.70
2019-04-06T11:04:52.358Z,16.32
2019-04-06T11:07:51.729Z,21.23
2019-04-06T11:11:02.593Z,17.30
2019-04-06T11:14:05.372Z,25.48
2019-04-06T11:17:09.971Z,31.90
2019-04-06T11:20:18.608Z,19.50
2019-04-06T11:23:26.801Z,20.85
2019-04-06T11:26:41.131Z,15.13
2019-04-06T11:29:37.857Z,20.12
2019-04-06T11:32:33.052Z,18.42
2019-04-06T11:35:35.320Z,18.12
2019-04-06T11:38:33.890Z,21.23
2019-04-06T11:41:27.683Z,24.85
2019-04-06T11:44:27.034Z,22.22
2019-04-06T11:47:40.969Z,17.05
2019-04-06T11:50:43.127Z,17.65
2019-04-06T11:53:48.140Z,12.58
2019-04-06T11:56:51.829Z,12.90
2019-04-06T12:00:05.956Z,23.00
2019-04-06T12:03:07.506Z,17.32
2019-04-06T12:05:52.598Z,11.48
2019-04-06T12:08:46.610Z,13.20
2019-04-06T12:11:36.100Z,18.55
2019-04-06T12:14:19.635Z,13.03
2019-04-06T12:17:18.908Z,14.25
2019-04-06T12:20:25.004Z,12.13
2019-04-06T12:23:19.857Z,15.48
2019-04-06T12:26:13.250Z,14.55
2019-04-06T12:29:21.697Z,18.10
2019-04-06T12:32:20.696Z,18.17
2019-04-06T12:35:17.107Z,18.55
2019-04-06T12:38:11.588Z,19.02
2019-04-06T12:41:07.097Z,13.62
2019-04-06T12:44:03.216Z,16.17
2019-04-06T12:47:08.535Z,13.85
2019-04-06T12:50:10.622Z,14.10
2019-04-06T12:53:12.899Z,12.40
2019-04-06T12:56:09.786Z,11.03
2019-04-06T12:59:11.945Z,12.10
2019-04-06T13:02:25.968Z,10.58
2019-04-06T13:05:37.127Z,12.50
2019-04-06T13:08:28.131Z,11.70
2019-04-06T13:11:37.139Z,11.70
2019-04-06T13:14:33.670Z,10.08
2019-04-06T13:17:33.342Z,13.80
2019-04-06T13:20:30.430Z,15.28
2019-04-06T13:23:25.699Z,12.93
2019-04-06T13:26:20.872Z,15.60
2019-04-06T13:29:11.469Z,19.02
2019-04-06T13:32:07.794Z,25.43
2019-04-06T13:35:03.616Z,22.10
2019-04-06T13:38:00.690Z,19.77
2019-04-06T13:40:55.565Z,13.90
2019-04-06T13:43:52.050Z,16.82
2019-04-06T13:46:39.997Z,15.43
2019-04-06T13:49:35.712Z,18.35
2019-04-06T13:52:24.564Z,12.40
2019-04-06T13:55:26.576Z,12.33
2019-04-06T13:58:12.327Z,19.92
2019-04-06T14:01:14.299Z,18.05
2019-04-06T14:04:00.619Z,18.62
2019-04-06T14:06:58.052Z,14.97
2019-04-06T14:09:54.088Z,15.35
2019-04-06T14:12:57.073Z,13.78
2019-04-06T14:15:56.641Z,12.90
2019-04-06T14:18:54.448Z,18.45
2019-04-06T14:21:47.076Z,11.33
2019-04-06T14:24:45.631Z,11.30
2019-04-06T14:27:51.303Z,17.55
2019-04-06T14:30:38.870Z,15.83
2019-04-06T14:33:40.945Z,11.78
2019-04-06T14:36:35.321Z,17.67
2019-04-06T14:39:22.166Z,13.78
2019-04-06T14:42:23.897Z,15.90
2019-04-06T14:45:23.441Z,16.17
2019-04-06T14:48:18.078Z,13.30
2019-04-06T14:51:12.693Z,13.38
2019-04-06T14:54:03.673Z,17.85
2019-04-06T14:56:57.129Z,12.28
2019-04-06T15:00:05.522Z,15.08
2019-04-06T15:02:58.810Z,17.57
2019-04-06T15:08:52.654Z,12.68
2019-04-06T15:11:45.865Z,10.15
2019-04-06T15:14:44.198Z,12.23
2019-04-06T15:17:38.028Z,11.00
2019-04-06T15:20:24.964Z,10.55
2019-04-06T15:23:20.397Z,14.58
2019-04-06T15:26:20.004Z,12.55
2019-04-06T15:29:25.286Z,15.23
2019-04-06T15:32:22.627Z,12.37
2019-04-06T15:35:27.678Z,14.00
2019-04-06T15:38:09.991Z,15.13
2019-04-06T15:40:58.804Z,20.30
2019-04-06T15:43:55.249Z,15.78
2019-04-06T15:46:54.339Z,11.88
2019-04-06T15:49:59.459Z,13.58
2019-04-06T15:52:50.045Z,11.28
2019-04-06T15:55:45.550Z,17.07
2019-04-06T15:58:34.729Z,10.78
2019-04-06T16:01:38.559Z,12.03
2019-04-06T16:04:49.674Z,11.12
2019-04-06T16:07:39.579Z,11.12
2019-04-06T16:10:30.993Z,12.95
2019-04-06T16:13:25.846Z,9.45
2019-04-06T16:16:10.416Z,11.15
2019-04-06T16:19:07.401Z,11.97
2019-04-06T16:22:06.014Z,12.80
2019-04-06T16:25:01.604Z,13.40
2019-04-06T16:27:49.784Z,11.75
2019-04-06T16:30:46.465Z,12.58
2019-04-06T16:33:40.173Z,12.53
2019-04-06T16:36:24.870Z,10.30
2019-04-06T16:39:27.045Z,11.70
2019-04-06T16:42:32.463Z,14.53
2019-04-06T16:45:37.298Z,13.88
2019-04-06T16:48:48.990Z,16.00
2019-04-06T16:51:49.605Z,17.90
2019-04-06T16:54:41.361Z,17.35
2019-04-06T16:57:28.306Z,19.65
2019-04-06T17:00:23.958Z,14.70
2019-04-06T17:03:25.451Z,11.43
2019-04-06T17:06:11.618Z,13.87
2019-04-06T17:09:16.494Z,16.48
2019-04-06T17:12:05.454Z,15.93
2019-04-06T17:15:05.245Z,9.60
2019-04-06T17:18:05.218Z,15.25
2019-04-06T17:21:06.539Z,11.80
2019-04-06T17:24:10.328Z,10.55
2019-04-06T17:27:09.440Z,12.07
2019-04-06T17:30:21.034Z,12.25
2019-04-06T17:33:17.724Z,13.13
2019-04-06T17:36:15.908Z,14.15
2019-04-06T17:39:16.619Z,11.15
2019-04-06T17:42:18.274Z,14.00
2019-04-06T17:45:13.784Z,15.87
2019-04-06T17:48:08.561Z,13.38
2019-04-06T17:51:10.317Z,14.68
2019-04-06T17:54:09.582Z,10.85
2019-04-06T17:57:03.974Z,14.15
2019-04-06T18:00:15.285Z,17.80
2019-04-06T18:03:00.679Z,19.17
2019-04-06T18:05:49.923Z,16.05
2019-04-06T18:08:37.730Z,16.62
2019-04-06T18:11:24.810Z,14.98
2019-04-06T18:14:03.042Z,13.43
2019-04-06T18:16:40.811Z,16.95
2019-04-06T18:19:19.337Z,12.25
2019-04-06T18:21:58.575Z,12.35
2019-04-06T18:24:37.412Z,13.08
2019-04-06T18:27:15.188Z,15.00
2019-04-06T18:29:52.432Z,14.35
2019-04-06T18:32:38.477Z,19.35
2019-04-06T18:35:16.657Z,16.12
2019-04-06T18:38:13.699Z,15.53
2019-04-06T18:40:50.914Z,15.98
2019-04-06T18:43:28.266Z,17.55
2019-04-06T18:46:07.101Z,15.85
2019-04-06T18:48:45.017Z,14.95
2019-04-06T18:51:22.314Z,17.12
2019-04-06T18:53:59.590Z,16.60
2019-04-06T18:56:37.954Z,18.10
2019-04-06T18:59:15.535Z,12.53
2019-04-06T19:01:53.087Z,14.85
2019-04-06T19:04:30.721Z,15.23
2019-04-06T19:07:08.690Z,18.48
2019-04-06T19:09:47.431Z,16.60
2019-04-06T19:12:24.735Z,19.37
2019-04-06T19:15:02.654Z,14.35
2019-04-06T19:17:40.771Z,18.75
2019-04-06T19:20:18.978Z,15.72
2019-04-06T19:22:57.153Z,15.98
2019-04-06T19:25:35.771Z,17.73
2019-04-06T19:28:15.568Z,16.35
2019-04-06T19:30:53.495Z,15.65
2019-04-06T19:33:30.723Z,18.17
2019-04-06T19:36:08.900Z,16.45
2019-04-06T19:38:47.387Z,17.75
2019-04-06T19:41:26.078Z,18.10
2019-04-06T19:44:03.652Z,18.32
2019-04-06T19:46:41.519Z,15.40
2019-04-06T19:49:19.563Z,17.45
2019-04-06T19:51:57.202Z,17.15
2019-04-06T19:54:34.447Z,16.42
2019-04-06T19:57:13.264Z,17.65
2019-04-06T19:59:51.446Z,18.73
2019-04-06T20:02:29.771Z,19.37
2019-04-06T20:05:07.608Z,16.87
2019-04-06T20:07:44.973Z,15.68
2019-04-06T20:10:23.390Z,13.88
2019-04-06T20:13:01.937Z,17.20
2019-04-06T20:15:39.135Z,17.67
2019-04-06T20:18:17.039Z,16.95
2019-04-06T20:20:55.744Z,19.80
2019-04-06T20:23:33.547Z,18.25
2019-04-06T20:26:10.867Z,16.87
2019-04-06T20:28:48.455Z,17.65
2019-04-06T20:31:27.225Z,18.98
2019-04-06T20:34:05.011Z,18.52
2019-04-06T20:36:42.229Z,22.17
2019-04-06T20:39:19.403Z,18.45
2019-04-06T20:41:57.551Z,20.25
2019-04-06T20:44:37.130Z,15.75
2019-04-06T20:47:14.501Z,18.40
2019-04-06T20:49:52.621Z,17.05
2019-04-06T20:52:31.694Z,16.25
2019-04-06T20:55:10.287Z,16.00
2019-04-06T20:57:48.361Z,16.93
2019-04-06T21:00:26.987Z,17.50
2019-04-06T21:03:05.371Z,17.98
2019-04-06T21:05:42.955Z,16.48
2019-04-06T21:08:20.281Z,15.90
2019-04-06T21:10:57.931Z,15.88
2019-04-06T21:13:35.846Z,17.27
2019-04-06T21:16:15.168Z,15.98
2019-04-06T21:18:52.692Z,15.48
2019-04-06T21:21:30.537Z,18.85
2019-04-06T21:24:09.671Z,18.40
2019-04-06T21:26:47.919Z,14.80
2019-04-06T21:29:25.190Z,14.70
2019-04-06T21:32:05.077Z,15.48
2019-04-06T21:34:42.695Z,16.93
2019-04-06T21:37:21.137Z,16.45
2019-04-06T21:39:58.635Z,18.80
2019-04-06T21:42:36.555Z,16.75
2019-04-06T21:45:14.087Z,15.38
2019-04-06T21:47:53.051Z,17.50
2019-04-06T21:50:33.166Z,13.10
2019-04-06T21:53:10.619Z,16.57
2019-04-06T21:55:48.377Z,16.75
2019-04-06T21:58:25.745Z,14.75
2019-04-06T22:01:03.787Z,16.97
2019-04-06T22:03:42.038Z,14.13
2019-04-06T22:06:20.690Z,15.08
2019-04-06T22:08:58.556Z,19.60
2019-04-06T22:11:37.082Z,15.00
2019-04-06T22:14:15.049Z,13.20
2019-04-06T22:16:52.775Z,15.35
2019-04-06T22:19:31.538Z,15.25
2019-04-06T22:22:10.096Z,21.02
2019-04-06T22:24:47.548Z,17.67
2019-04-06T22:27:26.731Z,17.90
2019-04-06T22:30:06.128Z,17.55
2019-04-06T22:32:43.428Z,23.83
2019-04-06T22:35:21.367Z,18.57
2019-04-06T22:38:01.206Z,18.05
2019-04-06T22:40:39.655Z,14.45
2019-04-06T22:43:17.387Z,16.05
2019-04-06T22:45:54.990Z,14.80
2019-04-06T22:48:32.683Z,17.95
2019-04-06T22:51:11.460Z,18.80
2019-04-06T22:53:49.274Z,17.92
2019-04-06T22:56:27.223Z,15.72
2019-04-06T22:59:05.237Z,12.10
2019-04-06T23:01:43.914Z,12.95
2019-04-06T23:04:47.731Z,16.12
2019-04-06T23:07:21.720Z,12.98
2019-04-06T23:10:00.164Z,14.03
2019-04-06T23:12:38.253Z,14.83
2019-04-06T23:15:16.444Z,12.70
2019-04-06T23:17:54.543Z,11.63
2019-04-06T23:20:33.323Z,16.40
2019-04-06T23:23:12.225Z,16.73
2019-04-06T23:25:49.721Z,12.20
2019-04-06T23:28:27.481Z,19.67
2019-04-06T23:31:06.567Z,13.70
2019-04-06T23:33:43.630Z,13.32
2019-04-06T23:36:20.989Z,16.75
2019-04-06T23:38:59.105Z,15.05
2019-04-06T23:41:37.847Z,20.00
2019-04-06T23:44:15.593Z,16.42
2019-04-06T23:46:52.804Z,20.62
2019-04-06T23:49:30.344Z,16.23
2019-04-06T23:52:08.279Z,19.62
2019-04-06T23:54:46.610Z,17.00
2019-04-06T23:57:23.857Z,14.73
